Time;durP1;ratioP1;P1;durP2;ratioP2;P2;SDS_P1;SDS_P2;PMS_P1;PMS_P2;Temp;Humidity;BMP_temperature;BMP_pressure;BME280_temperature;BME280_humidity;BME280_pressure;Samples;Min_cycle;Max_cycle;Signal;HPM_P1;HPM_P2
2022/10/05 00:01:48;;;;;;;11.65;4.93;;;;;;;13.98;100.00;100812.78;10454987;28;20094;-71
2022/10/05 00:07:17;;;;;;;13.35;5.60;;;;;;;14.14;100.00;100858.06;10456439;28;20044;-71
2022/10/05 00:12:20;;;;;;;13.77;6.70;;;;;;;13.99;100.00;100841.97;10455827;28;20140;-70
2022/10/05 00:17:23;;;;;;;12.93;5.10;;;;;;;13.95;100.00;100838.03;10454869;28;20045;-70
2022/10/05 00:22:30;;;;;;;11.37;4.40;;;;;;;13.90;100.00;100832.38;10454634;28;20174;-71
2022/10/05 00:27:36;;;;;;;20.80;14.20;;;;;;;13.84;100.00;100833.09;10454566;28;20131;-71
2022/10/05 00:32:37;;;;;;;15.20;7.22;;;;;;;13.80;100.00;100863.81;10454765;28;20041;-71
2022/10/05 00:37:38;;;;;;;16.98;7.88;;;;;;;13.80;100.00;100870.00;10463424;28;20403;-71
2022/10/05 00:43:24;;;;;;;19.83;7.20;;;;;;;13.79;100.00;100864.81;10576317;28;20055;-70
2022/10/05 00:48:59;;;;;;;9.63;4.85;;;;;;;13.69;100.00;100879.22;10565582;28;20095;-71
2022/10/05 00:54:18;;;;;;;9.43;4.82;;;;;;;13.70;100.00;100883.56;10579492;28;20402;-71
2022/10/05 00:59:31;;;;;;;7.93;4.05;;;;;;;13.29;100.00;100818.06;10579530;28;20046;-70
2022/10/05 01:05:01;;;;;;;19.50;4.73;;;;;;;13.75;100.00;100872.34;10579464;28;20491;-71
2022/10/05 01:10:12;;;;;;;13.02;4.47;;;;;;;13.66;100.00;100852.88;10579867;28;20122;-71
2022/10/05 01:15:22;;;;;;;7.22;3.63;;;;;;;13.66;100.00;100868.06;10561229;28;20578;-71
2022/10/05 01:20:41;;;;;;;5.60;2.70;;;;;;;13.13;100.00;100778.91;10578453;28;20035;-71
2022/10/05 01:26:10;;;;;;;11.60;2.92;;;;;;;13.49;100.00;100848.66;10560266;28;20035;-71
2022/10/05 01:31:27;;;;;;;8.98;3.88;;;;;;;13.23;100.00;100832.88;10578579;28;20505;-71
2022/10/05 01:36:54;;;;;;;10.02;3.78;;;;;;;13.19;100.00;100829.75;10579052;28;20059;-71
2022/10/05 01:42:44;;;;;;;10.40;4.93;;;;;;;13.26;100.00;100851.25;10556492;28;20059;-71
2022/10/05 01:47:54;;;;;;;15.57;6.80;;;;;;;13.07;100.00;100841.75;10498790;28;20058;-71
2022/10/05 01:53:36;;;;;;;9.00;4.47;;;;;;;13.19;100.00;100872.44;10543455;28;20048;-71
2022/10/05 01:59:14;;;;;;;20.70;5.90;;;;;;;12.93;100.00;100834.50;10532809;28;20516;-71
2022/10/05 02:04:21;;;;;;;22.92;6.75;;;;;;;12.70;100.00;100802.41;10543314;28;20044;-71
2022/10/05 02:09:32;;;;;;;15.50;5.85;;;;;;;12.99;100.00;100849.81;10544044;28;20036;-71
2022/10/05 02:14:40;;;;;;;12.27;6.18;;;;;;;12.92;100.00;100822.16;10543462;28;20086;-71
2022/10/05 02:19:47;;;;;;;25.08;6.35;;;;;;;12.98;100.00;100848.13;10543403;28;20135;-71
2022/10/05 02:24:55;;;;;;;14.15;5.80;;;;;;;12.95;100.00;100857.34;10542899;28;20036;-71
2022/10/05 02:30:01;;;;;;;12.13;5.55;;;;;;;12.99;100.00;100879.97;10542498;28;20048;-71
2022/10/05 02:35:11;;;;;;;18.17;8.07;;;;;;;13.02;100.00;100865.47;10551154;28;20043;-70
2022/10/05 02:40:29;;;;;;;26.08;11.32;;;;;;;13.17;100.00;100865.59;10558347;28;20055;-71
2022/10/05 02:45:45;;;;;;;23.38;7.60;;;;;;;13.32;100.00;100860.41;10568702;28;20047;-70
2022/10/05 02:51:27;;;;;;;72.15;25.02;;;;;;;13.40;100.00;100860.34;10551883;28;20043;-70
2022/10/05 03:12:19;;;;;;;19.80;4.60;;;;;;;13.75;100.00;100861.66;10485613;28;20406;-70
2022/10/05 03:17:38;;;;;;;54.10;13.38;;;;;;;13.82;100.00;100872.47;10460878;28;20041;-69
2022/10/05 03:22:54;;;;;;;73.40;28.80;;;;;;;13.72;100.00;100867.38;10448515;28;20428;-70
2022/10/05 03:28:02;;;;;;;55.72;16.55;;;;;;;13.73;100.00;100853.03;10447785;28;20095;-71
2022/10/05 03:33:18;;;;;;;50.03;19.20;;;;;;;13.89;100.00;100878.78;10444749;28;20044;-71
2022/10/05 03:38:31;;;;;;;32.22;6.07;;;;;;;13.70;100.00;100906.78;10446592;28;20399;-72
2022/10/05 03:43:49;;;;;;;16.27;3.88;;;;;;;13.61;100.00;100887.28;10447779;28;20049;-71
2022/10/05 03:48:56;;;;;;;6.63;2.80;;;;;;;13.72;100.00;100903.91;10447055;28;20037;-70
2022/10/05 03:54:14;;;;;;;8.55;2.28;;;;;;;14.07;100.00;100913.22;10446784;28;20037;-71
2022/10/05 03:59:19;;;;;;;4.75;2.22;;;;;;;14.08;100.00;100856.94;10447103;28;20049;-72
2022/10/05 04:04:30;;;;;;;26.20;4.68;;;;;;;14.81;100.00;100916.19;10447048;28;20034;-71
2022/10/05 04:09:38;;;;;;;4.03;2.35;;;;;;;15.09;100.00;100899.53;10440440;28;20171;-72
2022/10/05 04:15:01;;;;;;;9.00;2.67;;;;;;;15.52;100.00;100890.66;10419461;28;20128;-72
2022/10/05 04:20:32;;;;;;;5.65;1.85;;;;;;;15.87;100.00;100887.34;10418923;28;20041;-71
2022/10/05 04:25:41;;;;;;;3.45;1.60;;;;;;;16.07;100.00;100890.25;10412742;28;20136;-72
2022/10/05 04:30:46;;;;;;;6.82;3.28;;;;;;;15.95;99.68;100865.81;10417848;28;20037;-72
2022/10/05 04:36:07;;;;;;;10.10;3.30;;;;;;;16.69;97.45;100910.19;10397803;28;20401;-73
2022/10/05 04:41:26;;;;;;;7.72;2.30;;;;;;;16.50;96.41;100852.69;10345133;28;20056;-71
2022/10/05 04:46:32;;;;;;;4.97;2.17;;;;;;;16.78;96.43;100864.28;10371397;28;20038;-71
2022/10/05 04:52:09;;;;;;;8.88;2.03;;;;;;;17.31;93.42;100952.38;10365302;28;20440;-71
2022/10/05 04:57:24;;;;;;;3.22;1.85;;;;;;;17.36;92.33;100938.34;10346250;28;20057;-70
2022/10/05 05:02:43;;;;;;;2.38;1.60;;;;;;;17.19;94.54;100976.25;10335635;28;20185;-71
2022/10/05 05:08:07;;;;;;;3.00;1.83;;;;;;;17.18;91.91;100987.19;10334843;28;20513;-71
2022/10/05 05:13:46;;;;;;;;;;;;;;;17.66;92.17;100990.78;10335333;28;20077;-70
2022/10/05 05:19:14;;;;;;;6.03;2.70;;;;;;;17.64;90.04;100989.34;10290129;28;20028;-70
2022/10/05 05:24:35;;;;;;;5.63;1.83;;;;;;;17.66;nan;101011.47;10327446;28;20046;-69
2022/10/05 05:29:43;;;;;;;7.70;1.98;;;;;;;17.51;90.18;101007.03;10334754;28;20048;-70
2022/10/05 05:35:14;;;;;;;7.80;2.00;;;;;;;17.38;88.00;100923.72;10335260;28;20497;-70
2022/10/05 05:40:22;;;;;;;3.20;1.98;;;;;;;17.95;86.26;100983.53;10333758;28;20132;-70
2022/10/05 05:45:37;;;;;;;4.32;2.40;;;;;;;17.76;83.48;100899.06;10333683;28;20061;-70
2022/10/05 05:51:00;;;;;;;4.70;2.65;;;;;;;18.32;81.54;100949.91;10334252;28;20042;-70
2022/10/05 05:56:11;;;;;;;3.97;2.33;;;;;;;18.48;81.19;100978.28;10333769;28;20450;-70
2022/10/05 06:01:30;;;;;;;3.80;2.92;;;;;;;18.60;82.61;100975.81;10333507;28;20565;-69
2022/10/05 06:06:37;;;;;;;5.45;3.22;;;;;;;18.66;79.70;100951.59;10332826;28;20042;-70
2022/10/05 06:11:45;;;;;;;7.45;3.15;;;;;;;19.13;79.01;101003.59;10332710;28;20063;-69
2022/10/05 06:16:54;;;;;;;6.70;3.05;;;;;;;19.02;78.32;100963.84;10332706;28;20077;-70
2022/10/05 06:22:16;;;;;;;7.47;3.42;;;;;;;19.19;78.82;101017.28;10332200;28;20046;-70
2022/10/05 06:27:40;;;;;;;7.87;2.80;;;;;;;18.53;79.89;100948.91;10332436;28;20494;-70
2022/10/05 06:32:50;;;;;;;5.32;2.90;;;;;;;18.88;79.58;101008.78;10331217;28;20061;-70
2022/10/05 06:38:14;;;;;;;4.78;3.00;;;;;;;18.75;79.76;100973.78;10332627;28;20042;-70
2022/10/05 06:43:41;;;;;;;3.88;2.50;;;;;;;18.87;79.96;101003.59;10331981;28;20104;-70
2022/10/05 06:48:51;;;;;;;6.45;2.70;;;;;;;19.11;79.52;101002.97;10330400;28;20488;-70
2022/10/05 06:54:32;;;;;;;9.23;3.03;;;;;;;19.71;76.82;101032.53;10331550;28;20121;-70
2022/10/05 07:00:10;;;;;;;15.38;2.83;;;;;;;20.26;74.02;101026.75;10330603;28;20049;-70
2022/10/05 07:05:38;;;;;;;5.30;2.90;;;;;;;19.13;74.57;100863.56;10331700;28;20034;-70
2022/10/05 07:11:05;;;;;;;7.50;2.58;;;;;;;20.51;73.21;101029.50;10331815;28;20114;-70
2022/10/05 07:16:30;;;;;;;5.35;3.03;;;;;;;20.77;71.35;101027.72;10332211;28;20086;-70
2022/10/05 07:21:48;;;;;;;8.07;2.78;;;;;;;21.26;70.56;101026.91;10331492;28;20498;-71
2022/10/05 07:26:57;;;;;;;9.77;3.10;;;;;;;21.35;70.44;101012.06;10331439;28;20046;-71
2022/10/05 07:32:19;;;;;;;5.88;2.45;;;;;;;21.82;68.30;101025.13;10330538;28;20050;-71
2022/10/05 07:43:20;;;;;;;6.95;3.10;;;;;;;21.65;68.74;101033.81;10331081;28;20526;-70
2022/10/05 07:48:59;;;;;;;12.52;2.88;;;;;;;21.55;68.48;101019.19;10338550;28;20046;-71
2022/10/05 07:54:23;;;;;;;5.53;2.15;;;;;;;20.45;68.25;100898.16;10337430;28;20046;-70
2022/10/05 07:59:38;;;;;;;27.30;4.13;;;;;;;21.10;69.69;101030.19;10337427;28;20057;-72
2022/10/05 08:04:54;;;;;;;13.38;2.95;;;;;;;20.59;69.28;100967.22;10338624;28;20034;-71
2022/10/05 08:10:02;;;;;;;5.88;2.10;;;;;;;20.84;69.63;100996.09;10337852;28;20062;-70
2022/10/05 08:15:14;;;;;;;9.63;2.45;;;;;;;21.00;70.17;101021.72;10338156;28;20430;-70
2022/10/05 08:20:36;;;;;;;20.58;2.60;;;;;;;21.15;69.54;101039.28;10337431;28;20437;-70
2022/10/05 08:25:52;;;;;;;25.83;3.70;;;;;;;21.09;71.15;101042.00;10336628;28;20050;-70
2022/10/05 08:31:17;;;;;;;3.08;1.77;;;;;;;21.03;69.80;101070.75;10337008;28;20371;-70
2022/10/05 08:36:43;;;;;;;4.28;2.30;;;;;;;20.83;70.03;101056.56;10336319;28;20038;-70
2022/10/05 08:42:05;;;;;;;6.55;2.00;;;;;;;20.80;70.59;101019.19;10335320;28;20410;-70
2022/10/05 08:47:33;;;;;;;30.90;3.20;;;;;;;20.56;71.22;100986.56;10336326;28;20050;-69
2022/10/05 08:52:57;;;;;;;6.30;2.05;;;;;;;20.42;71.31;100983.06;10336526;28;20050;-70
2022/10/05 08:58:16;;;;;;;9.95;2.67;;;;;;;20.56;71.16;101002.75;10334214;28;20054;-71
2022/10/05 09:04:09;;;;;;;12.77;2.65;;;;;;;20.73;70.06;100974.19;10335907;28;20121;-70
2022/10/05 09:09:28;;;;;;;5.63;2.10;;;;;;;20.72;69.54;100974.38;10334588;28;20073;-70
2022/10/05 09:14:48;;;;;;;8.32;2.55;;;;;;;20.96;69.59;100951.94;10335109;28;20049;-71
2022/10/05 09:19:58;;;;;;;15.30;4.38;;;;;;;20.98;69.06;100911.22;10335733;28;20509;-70
2022/10/05 09:25:16;;;;;;;20.20;3.53;;;;;;;20.27;69.05;100823.38;10334461;28;20129;-71
2022/10/05 09:30:28;;;;;;;10.70;3.30;;;;;;;20.84;70.50;100920.50;10334690;28;20056;-70
2022/10/05 09:36:00;;;;;;;25.52;9.63;;;;;;;20.71;72.29;100940.34;10334009;28;20126;-70
2022/10/05 09:41:29;;;;;;;9.40;5.40;;;;;;;20.54;74.26;100934.66;10334127;28;20042;-71
2022/10/05 09:46:58;;;;;;;13.23;4.90;;;;;;;20.03;77.25;100900.50;10333510;28;20043;-72
2022/10/05 09:52:24;;;;;;;8.57;3.35;;;;;;;19.96;78.73;100945.59;10333938;28;20046;-70
2022/10/05 09:57:55;;;;;;;7.95;2.80;;;;;;;19.82;80.33;100969.88;10333482;28;20564;-71
2022/10/05 10:03:43;;;;;;;21.05;3.80;;;;;;;19.76;81.50;100946.47;10333404;28;20170;-71
2022/10/05 10:08:56;;;;;;;14.52;3.35;;;;;;;20.00;80.49;100973.75;10331831;28;20094;-71
2022/10/05 10:14:04;;;;;;;7.30;3.15;;;;;;;20.40;80.34;100987.88;10332513;28;20069;-72
2022/10/05 10:19:24;;;;;;;6.05;3.20;;;;;;;20.73;78.65;100978.72;10332468;28;20069;-70
2022/10/05 10:25:02;;;;;;;13.20;3.20;;;;;;;20.83;74.94;100965.56;10332883;28;20046;-69
2022/10/05 10:30:32;;;;;;;5.50;2.42;;;;;;;20.77;74.66;100958.34;10332475;28;20049;-69
2022/10/05 10:35:35;;;;;;;9.07;2.40;;;;;;;20.58;74.31;100937.72;10330900;28;20054;-70
2022/10/05 10:41:04;;;;;;;7.95;2.75;;;;;;;20.09;75.37;100874.56;10331712;28;20045;-70
2022/10/05 10:46:30;;;;;;;8.52;3.20;;;;;;;20.43;74.03;100957.75;10331682;28;20131;-69
2022/10/05 10:52:00;;;;;;;11.70;2.55;;;;;;;20.39;73.60;100975.41;10331800;28;20042;-69
2022/10/05 10:57:27;;;;;;;25.10;3.20;;;;;;;20.26;73.76;100984.41;10331849;28;20050;-70
2022/10/05 11:02:49;;;;;;;11.40;2.40;;;;;;;20.21;73.14;101007.69;10330796;28;20100;-70
2022/10/05 11:08:35;;;;;;;10.30;2.67;;;;;;;20.15;72.32;101030.13;10331454;28;20414;-71
2022/10/05 11:14:11;;;;;;;9.27;2.10;;;;;;;20.13;71.90;101021.41;10331066;28;20061;-69
2022/10/05 11:19:49;;;;;;;8.57;2.17;;;;;;;20.17;71.70;101044.22;10331663;28;20487;-69
2022/10/05 11:25:26;;;;;;;5.43;2.65;;;;;;;20.30;71.61;101036.88;10339593;28;20039;-69
2022/10/05 11:31:04;;;;;;;19.27;2.92;;;;;;;20.49;70.47;101016.25;10338029;28;20494;-69
2022/10/05 11:36:22;;;;;;;4.38;2.50;;;;;;;20.50;68.29;100966.63;10338720;28;20117;-69
2022/10/05 11:41:48;;;;;;;4.82;2.47;;;;;;;21.02;67.48;101033.13;10339088;28;20041;-68
2022/10/05 11:46:57;;;;;;;3.90;2.13;;;;;;;20.96;67.46;100997.84;10338700;28;20046;-69
2022/10/05 11:52:05;;;;;;;13.85;3.22;;;;;;;20.95;67.62;100968.38;10338533;28;20129;-68
2022/10/05 11:57:19;;;;;;;10.98;3.15;;;;;;;20.94;66.04;100953.25;10350206;28;20551;-69
2022/10/05 12:02:34;;;;;;;;;;;;;;;21.33;66.45;100997.94;10338032;28;20046;-69
2022/10/05 12:07:40;;;;;;;18.23;3.67;;;;;;;21.11;65.25;100988.59;10352708;28;19925;-70
2022/10/05 12:13:02;;;;;;;5.28;2.03;;;;;;;21.16;63.64;101008.50;10349124;28;20502;-69
2022/10/05 12:18:16;;;;;;;10.05;1.88;;;;;;;21.14;63.76;101023.28;10362315;28;20065;-70
2022/10/05 12:23:32;;;;;;;21.05;2.72;;;;;;;21.04;62.80;101014.84;10349603;28;20034;-71
2022/10/05 12:28:45;;;;;;;6.75;2.83;;;;;;;20.98;63.74;101030.88;10337170;28;20493;-69
2022/10/05 12:33:51;;;;;;;5.00;1.50;;;;;;;20.57;63.29;100968.47;10351118;28;20050;-70
2022/10/05 12:39:03;;;;;;;14.05;4.95;;;;;;;20.64;63.76;101013.28;10347994;28;20536;-69
2022/10/05 12:44:36;;;;;;;8.88;2.33;;;;;;;20.81;63.61;101035.16;10340290;28;20069;-70
2022/10/05 12:49:59;;;;;;;12.07;4.87;;;;;;;20.83;64.55;101040.38;10361468;28;20045;-69
2022/10/05 12:55:10;;;;;;;4.70;1.90;;;;;;;20.76;64.32;101053.91;10376765;28;20042;-70
2022/10/05 13:00:16;;;;;;;6.68;1.80;;;;;;;20.73;64.50;101070.50;10349421;28;20039;-70
2022/10/05 13:05:25;;;;;;;15.13;2.08;;;;;;;20.58;64.10;101041.16;10352632;28;20128;-70
2022/10/05 13:10:47;;;;;;;6.57;3.10;;;;;;;20.66;61.72;101070.56;10376745;28;20497;-70
2022/10/05 13:16:03;;;;;;;8.60;3.42;;;;;;;20.57;59.90;101065.66;10376074;28;20038;-70
2022/10/05 13:21:11;;;;;;;3.30;1.52;;;;;;;20.36;61.30;101056.78;10369127;28;20069;-69
2022/10/05 13:26:25;;;;;;;6.75;1.77;;;;;;;19.30;61.25;100946.63;10365779;28;20045;-69
2022/10/05 13:31:39;;;;;;;3.72;0.98;;;;;;;19.62;61.95;101052.66;10367661;28;20037;-69
2022/10/05 13:36:46;;;;;;;3.85;1.48;;;;;;;18.59;62.26;100923.88;10369560;28;20046;-69
2022/10/05 13:41:55;;;;;;;6.40;1.80;;;;;;;19.21;62.31;101071.78;10373224;28;20497;-69
2022/10/05 13:47:11;;;;;;;5.68;1.25;;;;;;;19.12;63.06;101104.28;10374306;28;20137;-69
2022/10/05 13:52:28;;;;;;;8.25;1.70;;;;;;;18.99;64.06;101063.88;10359676;28;20115;-70
2022/10/05 13:57:48;;;;;;;11.63;2.85;;;;;;;18.82;64.71;101063.47;10357420;28;20174;-69
2022/10/05 14:02:52;;;;;;;34.90;4.10;;;;;;;18.18;65.05;100991.25;10368209;28;20038;-72
2022/10/05 14:08:00;;;;;;;9.57;1.95;;;;;;;18.46;64.51;101058.38;10363278;28;20057;-69
2022/10/05 14:13:28;;;;;;;5.80;1.08;;;;;;;18.34;65.15;101071.59;10365939;28;20063;-71
2022/10/05 14:18:31;;;;;;;4.72;1.60;;;;;;;18.21;65.29;101096.53;10359279;28;20052;-69
2022/10/05 14:23:33;;;;;;;6.60;1.30;;;;;;;18.21;65.84;101107.28;10368222;28;20052;-69
2022/10/05 14:28:37;;;;;;;5.68;1.30;;;;;;;18.29;66.54;101140.44;10348850;28;20057;-70
2022/10/05 14:33:38;;;;;;;;;;;;;;;18.37;66.67;101170.69;10358442;28;20119;-69
2022/10/05 14:38:51;;;;;;;8.50;1.38;;;;;;;18.16;67.74;101185.06;10365728;28;19943;-71
2022/10/05 14:44:09;;;;;;;11.40;1.65;;;;;;;18.03;69.63;101155.41;10344957;28;20129;-68
2022/10/05 14:49:20;;;;;;;4.28;1.50;;;;;;;17.72;71.45;101105.53;10349823;28;20045;-67
2022/10/05 14:54:32;;;;;;;7.72;1.73;;;;;;;17.14;71.51;101026.19;10345798;28;20038;-68
2022/10/05 15:00:02;;;;;;;6.28;1.60;;;;;;;17.53;75.07;101085.59;10353214;28;20414;-67
2022/10/05 15:05:32;;;;;;;6.32;1.90;;;;;;;17.42;75.50;101094.16;10342096;28;20716;-68
2022/10/05 15:10:41;;;;;;;7.03;1.88;;;;;;;17.02;74.30;101056.25;10346448;28;20526;-66
2022/10/05 15:16:02;;;;;;;5.70;1.65;;;;;;;17.19;74.65;101126.59;10362937;28;20076;-69
2022/10/05 15:21:21;;;;;;;2.20;1.23;;;;;;;17.13;75.73;101164.13;10361815;28;20033;-69
2022/10/05 15:26:35;;;;;;;4.97;1.65;;;;;;;16.98;76.91;101148.91;10345277;28;20418;-70
2022/10/05 15:31:44;;;;;;;5.60;1.70;;;;;;;16.44;77.52;101066.13;10362960;28;20535;-70
2022/10/05 15:37:15;;;;;;;3.30;1.42;;;;;;;16.86;79.19;101151.25;10387907;28;20119;-69
2022/10/05 15:42:21;;;;;;;8.73;2.00;;;;;;;16.70;78.51;101132.69;10383015;28;20087;-70
2022/10/05 15:47:35;;;;;;;6.03;1.90;;;;;;;16.72;79.33;101183.44;10377607;28;20046;-69
2022/10/05 15:52:42;;;;;;;3.45;1.90;;;;;;;16.20;79.89;101110.19;10347563;28;20035;-70
2022/10/05 15:58:17;;;;;;;4.00;1.88;;;;;;;16.71;81.52;101192.53;10331054;28;20542;-70
2022/10/05 16:03:47;;;;;;;7.22;1.70;;;;;;;16.66;80.95;101187.72;10357577;28;20050;-70
2022/10/05 16:09:26;;;;;;;5.03;2.10;;;;;;;16.58;81.02;101202.06;10376238;28;20064;-70
2022/10/05 16:14:45;;;;;;;5.72;2.53;;;;;;;16.50;80.94;101199.47;10377725;28;20048;-69
2022/10/05 16:19:45;;;;;;;6.57;2.88;;;;;;;16.42;79.81;101205.78;10377059;28;20048;-71
2022/10/05 16:25:04;;;;;;;7.30;3.22;;;;;;;16.38;81.27;101209.84;10391381;28;20051;-70
2022/10/05 16:30:10;;;;;;;5.47;3.17;;;;;;;15.90;80.95;101138.84;10392868;28;20050;-70
2022/10/05 16:35:28;;;;;;;6.28;2.85;;;;;;;16.21;81.19;101205.66;10407293;28;20038;-72
2022/10/05 16:41:01;;;;;;;7.45;3.30;;;;;;;16.24;81.89;101199.94;10404289;28;20068;-70
2022/10/05 16:46:19;;;;;;;5.32;3.00;;;;;;;16.25;82.11;101241.84;10375358;28;20061;-69
2022/10/05 16:51:49;;;;;;;8.15;3.60;;;;;;;16.22;82.20;101250.25;10392548;28;20049;-70
2022/10/05 16:57:01;;;;;;;13.43;7.00;;;;;;;15.87;82.39;101200.84;10392599;28;20037;-71
2022/10/05 17:02:28;;;;;;;12.07;5.40;;;;;;;16.36;82.46;101286.97;10389124;28;21594;-70
2022/10/05 17:07:35;;;;;;;18.85;9.85;;;;;;;15.92;82.53;101199.28;10353505;28;20062;-69
2022/10/05 17:12:44;;;;;;;8.57;4.70;;;;;;;16.41;83.17;101257.75;10356787;28;20048;-69
2022/10/05 17:17:53;;;;;;;11.65;7.03;;;;;;;16.47;83.18;101261.53;10351211;28;20042;-70
2022/10/05 17:23:03;;;;;;;8.27;3.10;;;;;;;16.23;83.10;101230.47;10356964;28;20041;-70
2022/10/05 17:28:40;;;;;;;3.58;1.98;;;;;;;16.39;83.22;101246.38;10361736;28;20052;-69
2022/10/05 17:34:16;;;;;;;4.55;1.90;;;;;;;16.30;83.65;101246.63;10387996;28;20042;-70
2022/10/05 17:39:20;;;;;;;3.47;1.42;;;;;;;16.27;82.75;101250.50;10365120;28;20071;-70
2022/10/05 17:44:23;;;;;;;8.57;1.80;;;;;;;16.23;82.28;101256.44;10378603;28;20046;-70
2022/10/05 17:49:33;;;;;;;3.33;1.67;;;;;;;15.68;83.59;101159.31;10346663;28;20141;-69
2022/10/05 18:00:30;;;;;;;3.28;1.85;;;;;;;16.03;84.09;101221.28;10363208;28;20516;-69
2022/10/05 18:05:31;;;;;;;7.28;1.90;;;;;;;15.32;82.57;101117.09;10369351;28;20497;-70
2022/10/05 18:10:32;;;;;;;5.07;1.50;;;;;;;15.78;82.20;101210.78;10367879;28;20053;-70
2022/10/05 18:15:32;;;;;;;3.15;1.60;;;;;;;15.86;82.07;101240.19;10362265;28;20072;-69
2022/10/05 18:20:33;;;;;;;5.85;1.90;;;;;;;15.85;82.29;101257.25;10368200;28;20132;-69
2022/10/05 18:26:01;;;;;;;3.33;1.70;;;;;;;15.88;83.51;101264.94;10368642;28;20501;-69
2022/10/05 18:31:23;;;;;;;9.43;1.75;;;;;;;15.47;83.40;101202.81;10407800;28;20120;-69
2022/10/05 18:36:43;;;;;;;3.30;1.38;;;;;;;15.85;84.77;101318.06;10385094;28;20044;-69
2022/10/05 18:42:21;;;;;;;3.40;1.40;;;;;;;15.85;85.15;101286.72;10327369;28;20042;-69
2022/10/05 18:47:48;;;;;;;4.90;1.40;;;;;;;15.70;85.59;101300.09;10339477;28;20039;-70
2022/10/05 18:53:17;;;;;;;4.43;2.00;;;;;;;15.69;86.87;101313.66;10326504;28;20056;-69
2022/10/05 18:58:32;;;;;;;5.90;1.45;;;;;;;15.58;86.18;101324.75;10328036;28;20045;-70
2022/10/05 19:04:12;;;;;;;2.80;1.27;;;;;;;15.47;85.83;101324.16;10328041;28;20409;-68
2022/10/05 19:09:45;;;;;;;2.95;1.50;;;;;;;15.29;87.03;101335.13;10326820;28;20201;-70
2022/10/05 19:15:13;;;;;;;4.77;1.40;;;;;;;14.70;87.40;101243.72;10327468;28;20130;-69
2022/10/05 19:20:35;;;;;;;2.75;1.10;;;;;;;14.45;87.89;101205.50;10330984;28;20333;-70
2022/10/05 19:26:02;;;;;;;2.58;1.15;;;;;;;14.79;87.99;101256.06;10384148;28;20065;-69
2022/10/05 19:31:11;;;;;;;3.25;1.60;;;;;;;15.16;88.13;101339.34;10367085;28;20045;-73
2022/10/05 19:36:30;;;;;;;9.75;1.42;;;;;;;14.91;88.21;101304.66;10328821;28;20419;-67
2022/10/05 19:42:15;;;;;;;1.95;1.10;;;;;;;15.00;88.61;101302.78;10329656;28;20502;-70
2022/10/05 19:47:58;;;;;;;4.95;1.30;;;;;;;14.86;88.67;101293.63;10334864;28;20125;-70
2022/10/05 19:53:16;;;;;;;2.97;1.20;;;;;;;14.80;89.26;101294.31;10333291;28;20141;-70
2022/10/05 19:58:25;;;;;;;4.38;1.25;;;;;;;14.67;89.36;101272.66;10335414;28;20672;-70
2022/10/05 20:03:28;;;;;;;2.03;0.75;;;;;;;14.66;88.84;101298.56;10334640;28;20042;-70
2022/10/05 20:08:44;;;;;;;2.13;1.00;;;;;;;13.72;90.47;101160.25;10334129;28;20058;-70
2022/10/05 20:14:09;;;;;;;3.75;1.13;;;;;;;14.69;90.13;101306.25;10334226;28;20081;-71
2022/10/05 20:24:57;;;;;;;2.67;0.95;;;;;;;14.58;90.54;101263.81;10333956;28;20041;-70
2022/10/05 20:29:59;;;;;;;2.90;1.05;;;;;;;14.12;89.79;101186.91;10333384;28;20061;-70
2022/10/05 20:34:59;;;;;;;3.00;1.25;;;;;;;14.05;90.27;101193.91;10333426;28;20581;-70
2022/10/05 20:40:00;;;;;;;7.68;1.10;;;;;;;14.04;90.90;101208.28;10332563;28;20137;-71
2022/10/05 20:45:02;;;;;;;1.92;0.90;;;;;;;14.41;91.24;101259.47;10332642;28;20038;-70
2022/10/05 20:50:07;;;;;;;2.40;1.00;;;;;;;14.49;91.58;101280.84;10334138;28;20069;-71
2022/10/05 20:55:10;;;;;;;2.22;0.80;;;;;;;14.39;91.76;101265.00;10340871;28;20066;-70
2022/10/05 21:00:12;;;;;;;2.08;0.90;;;;;;;14.38;91.35;101287.38;10332242;28;20042;-70
2022/10/05 21:05:13;;;;;;;4.85;1.30;;;;;;;14.28;91.90;101282.22;10332214;28;20039;-70
2022/10/05 21:10:13;;;;;;;2.33;1.10;;;;;;;14.40;92.23;101314.78;10332227;28;20112;-71
2022/10/05 21:15:14;;;;;;;3.42;1.42;;;;;;;14.10;92.57;101247.69;10331394;28;20502;-70
2022/10/05 21:20:15;;;;;;;3.08;1.40;;;;;;;14.44;92.55;101285.88;10331118;28;20176;-70
2022/10/05 21:25:16;;;;;;;2.63;1.00;;;;;;;14.56;93.11;101303.25;10346110;28;20046;-71
2022/10/05 21:30:18;;;;;;;3.58;1.38;;;;;;;14.60;93.89;101304.59;10331709;28;20137;-70
2022/10/05 21:35:19;;;;;;;3.28;1.00;;;;;;;14.60;93.74;101292.06;10330530;28;20034;-71
2022/10/05 21:40:20;;;;;;;3.20;1.00;;;;;;;14.18;93.54;101225.47;10330886;28;20410;-70
2022/10/05 21:45:21;;;;;;;2.53;0.93;;;;;;;14.16;93.28;101220.28;10330783;28;20088;-70
2022/10/05 21:50:22;;;;;;;2.80;0.88;;;;;;;14.56;93.17;101288.03;10330528;28;20034;-70
2022/10/05 21:55:23;;;;;;;3.08;0.90;;;;;;;14.54;92.53;101292.75;10329737;28;20049;-70
2022/10/05 22:00:24;;;;;;;1.52;0.80;;;;;;;14.66;92.34;101309.25;10330582;28;20434;-70
2022/10/05 22:05:25;;;;;;;2.40;1.02;;;;;;;14.62;91.40;101273.16;10336015;28;20042;-70
2022/10/05 22:10:26;;;;;;;1.95;0.88;;;;;;;14.52;90.49;101259.16;10333332;28;20141;-70
2022/10/05 22:15:28;;;;;;;2.67;1.00;;;;;;;14.27;89.95;101252.97;10371860;28;20497;-70
2022/10/05 22:20:30;;;;;;;2.90;0.65;;;;;;;13.95;89.85;101224.50;10373886;28;20051;-70
2022/10/05 22:25:32;;;;;;;2.63;0.70;;;;;;;14.28;89.67;101286.75;10372754;28;20037;-70
2022/10/05 22:30:34;;;;;;;3.30;0.88;;;;;;;14.35;89.82;101301.09;10371843;28;20045;-70
2022/10/05 22:35:35;;;;;;;2.20;1.02;;;;;;;14.37;89.97;101309.78;10371712;28;20125;-70
2022/10/05 22:40:36;;;;;;;2.15;1.10;;;;;;;13.82;90.15;101219.63;10355681;28;20140;-70
2022/10/05 22:45:37;;;;;;;4.53;1.30;;;;;;;14.31;90.93;101310.47;10342667;28;20042;-70
2022/10/05 22:50:37;;;;;;;2.70;1.02;;;;;;;14.22;91.29;101288.25;10332215;28;20049;-70
2022/10/05 22:55:39;;;;;;;2.08;1.08;;;;;;;14.33;91.53;101276.38;10347747;28;20042;-70
2022/10/05 23:00:40;;;;;;;2.90;1.40;;;;;;;14.47;91.78;101293.56;10372389;28;20042;-70
2022/10/05 23:05:41;;;;;;;2.80;1.30;;;;;;;14.10;92.24;101226.31;10371949;28;20083;-70
2022/10/05 23:10:42;;;;;;;2.67;1.35;;;;;;;14.50;92.63;101315.44;10372178;28;20093;-70
2022/10/05 23:15:43;;;;;;;3.90;1.60;;;;;;;14.43;93.38;101311.78;10367469;28;20101;-70
2022/10/05 23:20:44;;;;;;;3.40;1.63;;;;;;;13.98;93.69;101221.47;10339279;28;20129;-70
2022/10/05 23:25:45;;;;;;;3.67;1.83;;;;;;;14.24;93.95;101245.31;10339528;28;20129;-70
2022/10/05 23:30:46;;;;;;;3.70;1.70;;;;;;;14.44;94.82;101270.66;10339651;28;20042;-72
2022/10/05 23:35:46;;;;;;;3.40;2.08;;;;;;;14.32;96.07;101256.81;10339982;28;20128;-72
2022/10/05 23:40:47;;;;;;;4.40;2.50;;;;;;;14.23;97.62;101278.38;10339917;28;20062;-71
2022/10/05 23:45:48;;;;;;;6.28;2.35;;;;;;;13.48;98.73;101156.59;10338976;28;20158;-71
2022/10/05 23:50:49;;;;;;;5.25;2.17;;;;;;;14.33;99.96;101303.13;10338068;28;20053;-71
2022/10/05 23:55:53;;;;;;;4.15;2.28;;;;;;;14.28;100.00;101305.44;10338541;28;20529;-71
